sensor_id;sensor_type;location;lat;lon;timestamp;P1;durP1;ratioP1;P2;durP2;ratioP2
27303;SDS011;14791;52.392;13.092;2022-11-11T00:01:57;1.70;;;1.60;;
27303;SDS011;14791;52.392;13.092;2022-11-11T00:04:43;1.50;;;1.40;;
27303;SDS011;14791;52.392;13.092;2022-11-11T00:07:30;1.57;;;1.47;;
27303;SDS011;14791;52.392;13.092;2022-11-11T00:10:17;1.43;;;1.33;;
27303;SDS011;14791;52.392;13.092;2022-11-11T00:13:05;1.67;;;1.57;;
27303;SDS011;14791;52.392;13.092;2022-11-11T00:15:51;2.53;;;1.90;;
27303;SDS011;14791;52.392;13.092;2022-11-11T00:18:38;2.23;;;1.90;;
27303;SDS011;14791;52.392;13.092;2022-11-11T00:21:44;1.90;;;1.77;;
27303;SDS011;14791;52.392;13.092;2022-11-11T00:24:49;1.50;;;1.40;;
27303;SDS011;14791;52.392;13.092;2022-11-11T00:27:51;2.50;;;1.60;;
27303;SDS011;14791;52.392;13.092;2022-11-11T00:30:37;2.93;;;2.40;;
27303;SDS011;14791;52.392;13.092;2022-11-11T00:33:24;1.50;;;1.40;;
27303;SDS011;14791;52.392;13.092;2022-11-11T00:36:11;1.60;;;1.20;;
27303;SDS011;14791;52.392;13.092;2022-11-11T00:38:58;2.03;;;1.77;;
27303;SDS011;14791;52.392;13.092;2022-11-11T00:41:45;2.23;;;1.50;;
27303;SDS011;14791;52.392;13.092;2022-11-11T00:44:31;1.40;;;1.30;;
27303;SDS011;14791;52.392;13.092;2022-11-11T00:47:18;1.37;;;1.13;;
27303;SDS011;14791;52.392;13.092;2022-11-11T00:50:25;2.90;;;1.57;;
27303;SDS011;14791;52.392;13.092;2022-11-11T00:53:31;2.13;;;1.90;;
27303;SDS011;14791;52.392;13.092;2022-11-11T00:56:19;1.70;;;1.60;;
27303;SDS011;14791;52.392;13.092;2022-11-11T00:59:07;1.67;;;1.57;;
27303;SDS011;14791;52.392;13.092;2022-11-11T01:01:54;1.57;;;1.40;;
27303;SDS011;14791;52.392;13.092;2022-11-11T01:04:41;1.73;;;1.50;;
27303;SDS011;14791;52.392;13.092;2022-11-11T01:07:28;1.40;;;1.30;;
27303;SDS011;14791;52.392;13.092;2022-11-11T01:10:15;1.50;;;1.40;;
27303;SDS011;14791;52.392;13.092;2022-11-11T01:13:06;1.50;;;1.50;;
27303;SDS011;14791;52.392;13.092;2022-11-11T01:15:58;3.70;;;1.77;;
27303;SDS011;14791;52.392;13.092;2022-11-11T01:18:47;3.33;;;1.60;;
27303;SDS011;14791;52.392;13.092;2022-11-11T01:21:35;3.57;;;1.83;;
27303;SDS011;14791;52.392;13.092;2022-11-11T01:24:22;1.50;;;1.23;;
27303;SDS011;14791;52.392;13.092;2022-11-11T01:27:09;1.57;;;1.47;;
27303;SDS011;14791;52.392;13.092;2022-11-11T01:29:56;1.60;;;1.50;;
27303;SDS011;14791;52.392;13.092;2022-11-11T01:32:43;1.60;;;1.50;;
27303;SDS011;14791;52.392;13.092;2022-11-11T01:35:30;2.17;;;1.57;;
27303;SDS011;14791;52.392;13.092;2022-11-11T01:38:17;1.83;;;1.70;;
27303;SDS011;14791;52.392;13.092;2022-11-11T01:41:05;1.73;;;1.37;;
27303;SDS011;14791;52.392;13.092;2022-11-11T01:43:54;1.43;;;1.30;;
27303;SDS011;14791;52.392;13.092;2022-11-11T01:46:57;1.93;;;1.60;;
27303;SDS011;14791;52.392;13.092;2022-11-11T01:50:01;1.77;;;1.50;;
27303;SDS011;14791;52.392;13.092;2022-11-11T01:52:45;1.87;;;1.60;;
27303;SDS011;14791;52.392;13.092;2022-11-11T01:55:32;2.33;;;1.60;;
27303;SDS011;14791;52.392;13.092;2022-11-11T01:58:19;1.87;;;1.70;;
27303;SDS011;14791;52.392;13.092;2022-11-11T02:01:07;2.10;;;1.57;;
27303;SDS011;14791;52.392;13.092;2022-11-11T02:03:54;3.83;;;1.50;;
27303;SDS011;14791;52.392;13.092;2022-11-11T02:07:03;1.90;;;1.60;;
27303;SDS011;14791;52.392;13.092;2022-11-11T02:09:51;1.63;;;1.53;;
27303;SDS011;14791;52.392;13.092;2022-11-11T02:12:40;1.67;;;1.57;;
27303;SDS011;14791;52.392;13.092;2022-11-11T02:15:45;1.60;;;1.50;;
27303;SDS011;14791;52.392;13.092;2022-11-11T02:18:32;2.17;;;1.70;;
27303;SDS011;14791;52.392;13.092;2022-11-11T02:21:32;1.77;;;1.67;;
27303;SDS011;14791;52.392;13.092;2022-11-11T02:24:15;1.73;;;1.57;;
27303;SDS011;14791;52.392;13.092;2022-11-11T02:27:04;2.47;;;1.47;;
27303;SDS011;14791;52.392;13.092;2022-11-11T02:29:54;1.40;;;1.40;;
27303;SDS011;14791;52.392;13.092;2022-11-11T02:32:43;2.80;;;1.80;;
27303;SDS011;14791;52.392;13.092;2022-11-11T02:35:36;1.53;;;1.43;;
27303;SDS011;14791;52.392;13.092;2022-11-11T02:38:25;1.70;;;1.43;;
27303;SDS011;14791;52.392;13.092;2022-11-11T02:41:13;1.80;;;1.70;;
27303;SDS011;14791;52.392;13.092;2022-11-11T02:44:18;1.33;;;1.33;;
27303;SDS011;14791;52.392;13.092;2022-11-11T02:47:05;1.47;;;1.37;;
27303;SDS011;14791;52.392;13.092;2022-11-11T02:49:52;1.93;;;1.47;;
27303;SDS011;14791;52.392;13.092;2022-11-11T02:52:40;1.53;;;1.47;;
27303;SDS011;14791;52.392;13.092;2022-11-11T02:55:26;1.47;;;1.43;;
27303;SDS011;14791;52.392;13.092;2022-11-11T02:58:14;1.40;;;1.30;;
27303;SDS011;14791;52.392;13.092;2022-11-11T03:01:01;2.30;;;1.63;;
27303;SDS011;14791;52.392;13.092;2022-11-11T03:03:48;3.33;;;1.60;;
27303;SDS011;14791;52.392;13.092;2022-11-11T03:06:35;2.23;;;1.30;;
27303;SDS011;14791;52.392;13.092;2022-11-11T03:09:22;1.63;;;1.53;;
27303;SDS011;14791;52.392;13.092;2022-11-11T03:12:08;1.90;;;1.43;;
27303;SDS011;14791;52.392;13.092;2022-11-11T03:14:55;1.40;;;1.40;;
27303;SDS011;14791;52.392;13.092;2022-11-11T03:17:42;2.53;;;1.67;;
27303;SDS011;14791;52.392;13.092;2022-11-11T03:20:29;2.03;;;1.70;;
27303;SDS011;14791;52.392;13.092;2022-11-11T03:23:34;1.57;;;1.47;;
27303;SDS011;14791;52.392;13.092;2022-11-11T03:26:20;1.90;;;1.40;;
27303;SDS011;14791;52.392;13.092;2022-11-11T03:29:08;2.00;;;1.90;;
27303;SDS011;14791;52.392;13.092;2022-11-11T03:31:54;2.37;;;1.80;;
27303;SDS011;14791;52.392;13.092;2022-11-11T03:34:41;1.60;;;1.50;;
27303;SDS011;14791;52.392;13.092;2022-11-11T03:37:28;1.43;;;1.33;;
27303;SDS011;14791;52.392;13.092;2022-11-11T03:40:33;2.43;;;1.20;;
27303;SDS011;14791;52.392;13.092;2022-11-11T03:43:20;1.37;;;1.37;;
27303;SDS011;14791;52.392;13.092;2022-11-11T03:46:09;1.67;;;1.17;;
27303;SDS011;14791;52.392;13.092;2022-11-11T03:48:56;1.33;;;1.23;;
27303;SDS011;14791;52.392;13.092;2022-11-11T03:51:43;2.03;;;1.53;;
27303;SDS011;14791;52.392;13.092;2022-11-11T03:54:30;1.60;;;1.50;;
27303;SDS011;14791;52.392;13.092;2022-11-11T03:57:16;2.30;;;2.20;;
27303;SDS011;14791;52.392;13.092;2022-11-11T04:00:16;1.87;;;1.77;;
27303;SDS011;14791;52.392;13.092;2022-11-11T04:03:09;2.20;;;2.00;;
27303;SDS011;14791;52.392;13.092;2022-11-11T04:06:16;1.20;;;1.20;;
27303;SDS011;14791;52.392;13.092;2022-11-11T04:09:20;2.00;;;1.53;;
27303;SDS011;14791;52.392;13.092;2022-11-11T04:12:26;1.90;;;1.60;;
27303;SDS011;14791;52.392;13.092;2022-11-11T04:15:14;1.40;;;1.30;;
27303;SDS011;14791;52.392;13.092;2022-11-11T04:18:19;1.70;;;1.50;;
27303;SDS011;14791;52.392;13.092;2022-11-11T04:21:07;1.87;;;1.70;;
27303;SDS011;14791;52.392;13.092;2022-11-11T04:24:13;1.80;;;1.40;;
27303;SDS011;14791;52.392;13.092;2022-11-11T04:27:20;2.17;;;1.47;;
27303;SDS011;14791;52.392;13.092;2022-11-11T04:30:07;2.23;;;1.60;;
27303;SDS011;14791;52.392;13.092;2022-11-11T04:32:55;2.27;;;1.77;;
27303;SDS011;14791;52.392;13.092;2022-11-11T04:35:41;3.73;;;2.07;;
27303;SDS011;14791;52.392;13.092;2022-11-11T04:38:30;1.63;;;1.53;;
27303;SDS011;14791;52.392;13.092;2022-11-11T04:41:34;1.50;;;1.40;;
27303;SDS011;14791;52.392;13.092;2022-11-11T04:44:21;2.37;;;1.73;;
27303;SDS011;14791;52.392;13.092;2022-11-11T04:47:26;1.73;;;1.63;;
27303;SDS011;14791;52.392;13.092;2022-11-11T04:50:13;1.37;;;1.37;;
27303;SDS011;14791;52.392;13.092;2022-11-11T04:53:01;1.50;;;1.40;;
27303;SDS011;14791;52.392;13.092;2022-11-11T04:55:50;1.40;;;1.40;;
27303;SDS011;14791;52.392;13.092;2022-11-11T04:58:55;3.43;;;1.80;;
27303;SDS011;14791;52.392;13.092;2022-11-11T05:01:59;2.77;;;1.57;;
27303;SDS011;14791;52.392;13.092;2022-11-11T05:05:04;1.60;;;1.50;;
27303;SDS011;14791;52.392;13.092;2022-11-11T05:07:51;1.57;;;1.47;;
27303;SDS011;14791;52.392;13.092;2022-11-11T05:10:56;1.60;;;1.50;;
27303;SDS011;14791;52.392;13.092;2022-11-11T05:13:44;1.40;;;1.30;;
27303;SDS011;14791;52.392;13.092;2022-11-11T05:16:53;1.73;;;1.63;;
27303;SDS011;14791;52.392;13.092;2022-11-11T05:19:59;2.00;;;1.67;;
27303;SDS011;14791;52.392;13.092;2022-11-11T05:23:04;1.80;;;1.70;;
27303;SDS011;14791;52.392;13.092;2022-11-11T05:25:51;1.93;;;1.40;;
27303;SDS011;14791;52.392;13.092;2022-11-11T05:28:37;1.93;;;1.70;;
27303;SDS011;14791;52.392;13.092;2022-11-11T05:31:24;1.60;;;1.50;;
27303;SDS011;14791;52.392;13.092;2022-11-11T05:34:12;3.10;;;1.57;;
27303;SDS011;14791;52.392;13.092;2022-11-11T05:36:59;2.30;;;1.77;;
27303;SDS011;14791;52.392;13.092;2022-11-11T05:39:46;2.17;;;2.07;;
27303;SDS011;14791;52.392;13.092;2022-11-11T05:42:33;3.23;;;1.80;;
27303;SDS011;14791;52.392;13.092;2022-11-11T05:45:20;1.77;;;1.67;;
27303;SDS011;14791;52.392;13.092;2022-11-11T05:48:07;2.07;;;1.57;;
27303;SDS011;14791;52.392;13.092;2022-11-11T05:50:53;2.00;;;1.80;;
27303;SDS011;14791;52.392;13.092;2022-11-11T05:53:45;1.80;;;1.67;;
27303;SDS011;14791;52.392;13.092;2022-11-11T05:56:32;1.93;;;1.70;;
27303;SDS011;14791;52.392;13.092;2022-11-11T05:59:19;1.87;;;1.77;;
27303;SDS011;14791;52.392;13.092;2022-11-11T06:02:06;1.40;;;1.40;;
27303;SDS011;14791;52.392;13.092;2022-11-11T06:04:54;1.77;;;1.67;;
27303;SDS011;14791;52.392;13.092;2022-11-11T06:07:40;2.10;;;1.90;;
27303;SDS011;14791;52.392;13.092;2022-11-11T06:10:27;2.30;;;1.97;;
27303;SDS011;14791;52.392;13.092;2022-11-11T06:13:17;1.47;;;1.47;;
27303;SDS011;14791;52.392;13.092;2022-11-11T06:16:04;1.83;;;1.70;;
27303;SDS011;14791;52.392;13.092;2022-11-11T06:18:51;1.30;;;1.30;;
27303;SDS011;14791;52.392;13.092;2022-11-11T06:21:38;1.40;;;1.30;;
27303;SDS011;14791;52.392;13.092;2022-11-11T06:24:39;1.70;;;1.60;;
27303;SDS011;14791;52.392;13.092;2022-11-11T06:27:26;1.70;;;1.60;;
27303;SDS011;14791;52.392;13.092;2022-11-11T06:30:12;2.07;;;1.80;;
27303;SDS011;14791;52.392;13.092;2022-11-11T06:33:00;1.83;;;1.70;;
27303;SDS011;14791;52.392;13.092;2022-11-11T06:35:47;1.70;;;1.60;;
27303;SDS011;14791;52.392;13.092;2022-11-11T06:38:34;1.50;;;1.40;;
27303;SDS011;14791;52.392;13.092;2022-11-11T06:41:21;1.60;;;1.53;;
27303;SDS011;14791;52.392;13.092;2022-11-11T06:44:09;1.70;;;1.60;;
27303;SDS011;14791;52.392;13.092;2022-11-11T06:46:56;1.57;;;1.57;;
27303;SDS011;14791;52.392;13.092;2022-11-11T06:49:43;2.67;;;1.90;;
27303;SDS011;14791;52.392;13.092;2022-11-11T06:52:30;1.90;;;1.80;;
27303;SDS011;14791;52.392;13.092;2022-11-11T06:55:17;2.20;;;2.10;;
27303;SDS011;14791;52.392;13.092;2022-11-11T06:58:04;2.17;;;1.93;;
27303;SDS011;14791;52.392;13.092;2022-11-11T07:00:52;1.60;;;1.50;;
27303;SDS011;14791;52.392;13.092;2022-11-11T07:03:39;2.60;;;2.00;;
27303;SDS011;14791;52.392;13.092;2022-11-11T07:06:26;1.87;;;1.70;;
27303;SDS011;14791;52.392;13.092;2022-11-11T07:09:13;1.83;;;1.73;;
27303;SDS011;14791;52.392;13.092;2022-11-11T07:11:59;2.73;;;1.87;;
27303;SDS011;14791;52.392;13.092;2022-11-11T07:14:46;2.30;;;1.57;;
27303;SDS011;14791;52.392;13.092;2022-11-11T07:17:33;1.73;;;1.63;;
27303;SDS011;14791;52.392;13.092;2022-11-11T07:20:20;1.73;;;1.50;;
27303;SDS011;14791;52.392;13.092;2022-11-11T07:23:07;1.70;;;1.60;;
27303;SDS011;14791;52.392;13.092;2022-11-11T07:25:54;1.50;;;1.33;;
27303;SDS011;14791;52.392;13.092;2022-11-11T07:28:41;1.53;;;1.50;;
27303;SDS011;14791;52.392;13.092;2022-11-11T07:31:28;1.60;;;1.50;;
27303;SDS011;14791;52.392;13.092;2022-11-11T07:34:15;1.27;;;1.27;;
27303;SDS011;14791;52.392;13.092;2022-11-11T07:37:02;1.77;;;1.67;;
27303;SDS011;14791;52.392;13.092;2022-11-11T07:39:49;2.23;;;1.50;;
27303;SDS011;14791;52.392;13.092;2022-11-11T07:42:36;1.73;;;1.70;;
27303;SDS011;14791;52.392;13.092;2022-11-11T07:45:27;1.60;;;1.40;;
27303;SDS011;14791;52.392;13.092;2022-11-11T07:48:14;1.63;;;1.53;;
27303;SDS011;14791;52.392;13.092;2022-11-11T07:51:01;1.63;;;1.53;;
27303;SDS011;14791;52.392;13.092;2022-11-11T07:53:48;2.03;;;1.60;;
27303;SDS011;14791;52.392;13.092;2022-11-11T07:56:35;1.80;;;1.70;;
27303;SDS011;14791;52.392;13.092;2022-11-11T07:59:22;1.70;;;1.60;;
27303;SDS011;14791;52.392;13.092;2022-11-11T08:02:12;1.40;;;1.23;;
27303;SDS011;14791;52.392;13.092;2022-11-11T08:05:00;1.77;;;1.37;;
27303;SDS011;14791;52.392;13.092;2022-11-11T08:07:47;1.50;;;1.40;;
27303;SDS011;14791;52.392;13.092;2022-11-11T08:10:34;2.57;;;0.87;;
27303;SDS011;14791;52.392;13.092;2022-11-11T08:13:21;2.40;;;2.30;;
27303;SDS011;14791;52.392;13.092;2022-11-11T08:16:27;1.40;;;1.40;;
27303;SDS011;14791;52.392;13.092;2022-11-11T08:19:15;2.03;;;1.50;;
27303;SDS011;14791;52.392;13.092;2022-11-11T08:22:01;1.90;;;1.80;;
27303;SDS011;14791;52.392;13.092;2022-11-11T08:24:49;1.53;;;1.43;;
27303;SDS011;14791;52.392;13.092;2022-11-11T08:27:35;1.33;;;1.23;;
27303;SDS011;14791;52.392;13.092;2022-11-11T08:30:23;2.70;;;1.70;;
27303;SDS011;14791;52.392;13.092;2022-11-11T08:33:09;1.40;;;1.30;;
27303;SDS011;14791;52.392;13.092;2022-11-11T08:35:58;1.33;;;1.27;;
27303;SDS011;14791;52.392;13.092;2022-11-11T08:38:46;2.27;;;1.40;;
27303;SDS011;14791;52.392;13.092;2022-11-11T08:41:33;1.53;;;1.40;;
27303;SDS011;14791;52.392;13.092;2022-11-11T08:44:19;1.50;;;1.40;;
27303;SDS011;14791;52.392;13.092;2022-11-11T08:47:06;1.70;;;1.33;;
27303;SDS011;14791;52.392;13.092;2022-11-11T08:49:53;1.70;;;1.60;;
27303;SDS011;14791;52.392;13.092;2022-11-11T08:52:47;1.00;;;1.00;;
27303;SDS011;14791;52.392;13.092;2022-11-11T08:55:35;1.30;;;1.20;;
27303;SDS011;14791;52.392;13.092;2022-11-11T08:58:23;1.43;;;1.40;;
27303;SDS011;14791;52.392;13.092;2022-11-11T09:01:10;1.40;;;1.40;;
27303;SDS011;14791;52.392;13.092;2022-11-11T09:03:57;1.70;;;1.60;;
27303;SDS011;14791;52.392;13.092;2022-11-11T09:06:44;1.30;;;1.30;;
27303;SDS011;14791;52.392;13.092;2022-11-11T09:09:32;1.63;;;1.60;;
27303;SDS011;14791;52.392;13.092;2022-11-11T09:12:19;1.20;;;1.00;;
27303;SDS011;14791;52.392;13.092;2022-11-11T09:15:06;1.20;;;1.20;;
27303;SDS011;14791;52.392;13.092;2022-11-11T09:17:53;1.17;;;1.17;;
27303;SDS011;14791;52.392;13.092;2022-11-11T09:20:40;1.62;;;1.15;;
27303;SDS011;14791;52.392;13.092;2022-11-11T09:23:27;1.50;;;1.40;;
27303;SDS011;14791;52.392;13.092;2022-11-11T09:26:14;1.17;;;1.13;;
27303;SDS011;14791;52.392;13.092;2022-11-11T09:29:01;1.02;;;1.02;;
27303;SDS011;14791;52.392;13.092;2022-11-11T09:31:48;1.30;;;1.30;;
27303;SDS011;14791;52.392;13.092;2022-11-11T09:34:35;1.62;;;1.40;;
27303;SDS011;14791;52.392;13.092;2022-11-11T09:37:22;1.87;;;1.77;;
27303;SDS011;14791;52.392;13.092;2022-11-11T09:40:14;1.62;;;1.52;;
27303;SDS011;14791;52.392;13.092;2022-11-11T09:43:04;1.40;;;1.30;;
27303;SDS011;14791;52.392;13.092;2022-11-11T09:46:16;1.27;;;1.27;;
27303;SDS011;14791;52.392;13.092;2022-11-11T09:55:26;1.73;;;1.63;;
27303;SDS011;14791;52.392;13.092;2022-11-11T09:58:00;1.45;;;1.35;;
27303;SDS011;14791;52.392;13.092;2022-11-11T10:01:05;2.17;;;2.08;;
27303;SDS011;14791;52.392;13.092;2022-11-11T10:04:12;1.62;;;1.62;;
27303;SDS011;14791;52.392;13.092;2022-11-11T10:07:20;1.42;;;1.42;;
27303;SDS011;14791;52.392;13.092;2022-11-11T10:10:15;1.50;;;1.47;;
27303;SDS011;14791;52.392;13.092;2022-11-11T10:13:11;1.25;;;1.25;;
27303;SDS011;14791;52.392;13.092;2022-11-11T10:16:08;2.50;;;1.50;;
27303;SDS011;14791;52.392;13.092;2022-11-11T10:19:23;1.32;;;1.25;;
27303;SDS011;14791;52.392;13.092;2022-11-11T10:22:20;2.08;;;1.22;;
27303;SDS011;14791;52.392;13.092;2022-11-11T10:28:06;1.45;;;1.35;;
27303;SDS011;14791;52.392;13.092;2022-11-11T10:30:55;1.52;;;1.42;;
27303;SDS011;14791;52.392;13.092;2022-11-11T10:33:50;1.92;;;1.90;;
27303;SDS011;14791;52.392;13.092;2022-11-11T10:36:57;2.12;;;1.90;;
27303;SDS011;14791;52.392;13.092;2022-11-11T10:40:04;2.08;;;1.98;;
27303;SDS011;14791;52.392;13.092;2022-11-11T10:42:57;2.22;;;2.12;;
27303;SDS011;14791;52.392;13.092;2022-11-11T10:45:51;1.77;;;1.62;;
27303;SDS011;14791;52.392;13.092;2022-11-11T10:48:50;1.25;;;1.25;;
27303;SDS011;14791;52.392;13.092;2022-11-11T10:51:58;1.77;;;1.67;;
27303;SDS011;14791;52.392;13.092;2022-11-11T10:54:59;1.42;;;1.42;;
27303;SDS011;14791;52.392;13.092;2022-11-11T10:57:56;1.25;;;1.25;;
27303;SDS011;14791;52.392;13.092;2022-11-11T11:00:59;1.85;;;1.75;;
27303;SDS011;14791;52.392;13.092;2022-11-11T11:03:49;1.50;;;1.40;;
27303;SDS011;14791;52.392;13.092;2022-11-11T11:06:49;1.42;;;1.42;;
27303;SDS011;14791;52.392;13.092;2022-11-11T11:09:44;1.57;;;1.57;;
27303;SDS011;14791;52.392;13.092;2022-11-11T11:12:40;1.45;;;1.35;;
27303;SDS011;14791;52.392;13.092;2022-11-11T11:15:28;1.40;;;1.30;;
27303;SDS011;14791;52.392;13.092;2022-11-11T11:18:17;1.67;;;1.57;;
27303;SDS011;14791;52.392;13.092;2022-11-11T11:21:05;1.35;;;1.35;;
27303;SDS011;14791;52.392;13.092;2022-11-11T11:23:53;1.87;;;1.70;;
27303;SDS011;14791;52.392;13.092;2022-11-11T11:26:45;1.80;;;1.47;;
27303;SDS011;14791;52.392;13.092;2022-11-11T11:32:20;1.40;;;1.27;;
27303;SDS011;14791;52.392;13.092;2022-11-11T11:38:47;1.70;;;1.60;;
27303;SDS011;14791;52.392;13.092;2022-11-11T11:41:17;1.70;;;1.60;;
27303;SDS011;14791;52.392;13.092;2022-11-11T11:44:33;1.35;;;1.35;;
27303;SDS011;14791;52.392;13.092;2022-11-11T11:56:47;1.22;;;1.12;;
27303;SDS011;14791;52.392;13.092;2022-11-11T11:59:38;1.77;;;1.67;;
27303;SDS011;14791;52.392;13.092;2022-11-11T12:05:46;1.30;;;1.30;;
27303;SDS011;14791;52.392;13.092;2022-11-11T12:11:48;1.22;;;1.00;;
27303;SDS011;14791;52.392;13.092;2022-11-11T12:14:41;0.95;;;0.95;;
27303;SDS011;14791;52.392;13.092;2022-11-11T12:20:49;1.10;;;1.10;;
27303;SDS011;14791;52.392;13.092;2022-11-11T12:23:41;0.95;;;0.95;;
27303;SDS011;14791;52.392;13.092;2022-11-11T12:26:48;1.00;;;1.00;;
27303;SDS011;14791;52.392;13.092;2022-11-11T12:29:47;1.10;;;1.07;;
27303;SDS011;14791;52.392;13.092;2022-11-11T12:36:07;1.17;;;1.12;;
27303;SDS011;14791;52.392;13.092;2022-11-11T12:54:29;1.30;;;1.20;;
27303;SDS011;14791;52.392;13.092;2022-11-11T12:57:24;0.98;;;0.98;;
27303;SDS011;14791;52.392;13.092;2022-11-11T13:00:23;1.10;;;1.10;;
27303;SDS011;14791;52.392;13.092;2022-11-11T13:03:20;1.70;;;1.17;;
27303;SDS011;14791;52.392;13.092;2022-11-11T13:06:29;1.20;;;1.10;;
27303;SDS011;14791;52.392;13.092;2022-11-11T13:09:23;1.07;;;1.07;;
27303;SDS011;14791;52.392;13.092;2022-11-11T13:12:12;1.57;;;0.95;;
27303;SDS011;14791;52.392;13.092;2022-11-11T13:15:07;1.20;;;1.10;;
27303;SDS011;14791;52.392;13.092;2022-11-11T13:18:07;0.93;;;0.93;;
27303;SDS011;14791;52.392;13.092;2022-11-11T13:21:02;1.15;;;1.05;;
27303;SDS011;14791;52.392;13.092;2022-11-11T13:23:50;0.85;;;0.85;;
27303;SDS011;14791;52.392;13.092;2022-11-11T13:26:38;1.15;;;1.15;;
27303;SDS011;14791;52.392;13.092;2022-11-11T13:32:43;1.70;;;1.00;;
27303;SDS011;14791;52.392;13.092;2022-11-11T13:35:34;1.05;;;1.05;;
27303;SDS011;14791;52.392;13.092;2022-11-11T13:41:38;0.90;;;0.90;;
27303;SDS011;14791;52.392;13.092;2022-11-11T13:44:31;0.90;;;0.90;;
27303;SDS011;14791;52.392;13.092;2022-11-11T13:47:21;0.85;;;0.85;;
27303;SDS011;14791;52.392;13.092;2022-11-11T13:50:19;0.95;;;0.95;;
27303;SDS011;14791;52.392;13.092;2022-11-11T13:56:21;1.00;;;1.00;;
27303;SDS011;14791;52.392;13.092;2022-11-11T13:59:32;0.80;;;0.80;;
27303;SDS011;14791;52.392;13.092;2022-11-11T14:02:24;0.98;;;0.98;;
27303;SDS011;14791;52.392;13.092;2022-11-11T14:07:54;1.10;;;1.10;;
27303;SDS011;14791;52.392;13.092;2022-11-11T14:10:49;1.20;;;1.20;;
27303;SDS011;14791;52.392;13.092;2022-11-11T14:13:41;0.82;;;0.82;;
27303;SDS011;14791;52.392;13.092;2022-11-11T14:25:20;0.82;;;0.82;;
27303;SDS011;14791;52.392;13.092;2022-11-11T14:28:19;0.82;;;0.82;;
27303;SDS011;14791;52.392;13.092;2022-11-11T14:40:28;0.95;;;0.95;;
27303;SDS011;14791;52.392;13.092;2022-11-11T14:44:01;2.45;;;1.10;;
27303;SDS011;14791;52.392;13.092;2022-11-11T14:46:20;1.42;;;1.10;;
27303;SDS011;14791;52.392;13.092;2022-11-11T14:49:07;1.60;;;1.00;;
27303;SDS011;14791;52.392;13.092;2022-11-11T14:51:55;1.10;;;1.10;;
27303;SDS011;14791;52.392;13.092;2022-11-11T14:57:57;1.27;;;1.20;;
27303;SDS011;14791;52.392;13.092;2022-11-11T15:01:01;1.87;;;1.07;;
27303;SDS011;14791;52.392;13.092;2022-11-11T15:03:50;1.30;;;1.20;;
27303;SDS011;14791;52.392;13.092;2022-11-11T15:06:43;1.00;;;1.00;;
27303;SDS011;14791;52.392;13.092;2022-11-11T15:09:49;1.32;;;1.32;;
27303;SDS011;14791;52.392;13.092;2022-11-11T15:19:18;1.40;;;1.30;;
27303;SDS011;14791;52.392;13.092;2022-11-11T15:32:03;1.80;;;1.70;;
27303;SDS011;14791;52.392;13.092;2022-11-11T15:35:27;3.10;;;2.90;;
27303;SDS011;14791;52.392;13.092;2022-11-11T15:38:10;4.78;;;4.58;;
27303;SDS011;14791;52.392;13.092;2022-11-11T15:40:58;3.27;;;3.17;;
27303;SDS011;14791;52.392;13.092;2022-11-11T15:43:45;3.10;;;3.00;;
27303;SDS011;14791;52.392;13.092;2022-11-11T15:46:35;2.52;;;2.42;;
27303;SDS011;14791;52.392;13.092;2022-11-11T15:52:29;1.47;;;1.47;;
27303;SDS011;14791;52.392;13.092;2022-11-11T15:55:28;1.40;;;1.40;;
27303;SDS011;14791;52.392;13.092;2022-11-11T15:58:24;1.70;;;1.60;;
27303;SDS011;14791;52.392;13.092;2022-11-11T16:01:13;2.30;;;2.10;;
27303;SDS011;14791;52.392;13.092;2022-11-11T16:04:01;3.43;;;3.23;;
27303;SDS011;14791;52.392;13.092;2022-11-11T16:06:49;3.53;;;3.33;;
27303;SDS011;14791;52.392;13.092;2022-11-11T16:09:37;3.30;;;3.00;;
27303;SDS011;14791;52.392;13.092;2022-11-11T16:12:30;4.60;;;4.30;;
27303;SDS011;14791;52.392;13.092;2022-11-11T16:18:18;4.07;;;3.87;;
27303;SDS011;14791;52.392;13.092;2022-11-11T16:21:07;3.23;;;3.13;;
27303;SDS011;14791;52.392;13.092;2022-11-11T16:24:01;2.67;;;2.57;;
27303;SDS011;14791;52.392;13.092;2022-11-11T16:26:50;3.30;;;3.10;;
27303;SDS011;14791;52.392;13.092;2022-11-11T16:29:38;2.53;;;2.43;;
27303;SDS011;14791;52.392;13.092;2022-11-11T16:35:25;2.93;;;2.83;;
27303;SDS011;14791;52.392;13.092;2022-11-11T16:38:09;3.77;;;3.20;;
27303;SDS011;14791;52.392;13.092;2022-11-11T16:40:56;3.37;;;3.13;;
27303;SDS011;14791;52.392;13.092;2022-11-11T16:43:43;2.40;;;2.20;;
27303;SDS011;14791;52.392;13.092;2022-11-11T16:49:35;1.83;;;1.73;;
27303;SDS011;14791;52.392;13.092;2022-11-11T16:52:27;2.40;;;2.30;;
27303;SDS011;14791;52.392;13.092;2022-11-11T16:55:17;2.80;;;2.70;;
27303;SDS011;14791;52.392;13.092;2022-11-11T16:58:15;3.00;;;2.80;;
27303;SDS011;14791;52.392;13.092;2022-11-11T17:01:04;2.87;;;2.77;;
27303;SDS011;14791;52.392;13.092;2022-11-11T17:03:58;2.83;;;2.73;;
27303;SDS011;14791;52.392;13.092;2022-11-11T17:06:50;2.83;;;2.73;;
27303;SDS011;14791;52.392;13.092;2022-11-11T17:09:41;2.70;;;2.50;;
27303;SDS011;14791;52.392;13.092;2022-11-11T17:12:29;2.67;;;2.47;;
27303;SDS011;14791;52.392;13.092;2022-11-11T17:15:17;2.83;;;1.97;;
27303;SDS011;14791;52.392;13.092;2022-11-11T17:18:05;3.23;;;2.93;;
27303;SDS011;14791;52.392;13.092;2022-11-11T17:20:53;3.70;;;3.40;;
27303;SDS011;14791;52.392;13.092;2022-11-11T17:23:41;3.10;;;2.90;;
27303;SDS011;14791;52.392;13.092;2022-11-11T17:26:28;3.30;;;3.20;;
27303;SDS011;14791;52.392;13.092;2022-11-11T17:29:15;2.30;;;2.20;;
27303;SDS011;14791;52.392;13.092;2022-11-11T17:32:02;2.57;;;2.47;;
27303;SDS011;14791;52.392;13.092;2022-11-11T17:34:49;2.67;;;2.57;;
27303;SDS011;14791;52.392;13.092;2022-11-11T17:37:36;3.20;;;3.00;;
27303;SDS011;14791;52.392;13.092;2022-11-11T17:40:23;3.47;;;3.27;;
27303;SDS011;14791;52.392;13.092;2022-11-11T17:43:10;3.10;;;2.90;;
27303;SDS011;14791;52.392;13.092;2022-11-11T17:46:02;4.10;;;3.87;;
27303;SDS011;14791;52.392;13.092;2022-11-11T17:48:53;5.57;;;5.10;;
27303;SDS011;14791;52.392;13.092;2022-11-11T17:51:40;4.77;;;4.37;;
27303;SDS011;14791;52.392;13.092;2022-11-11T17:54:27;5.70;;;5.30;;
27303;SDS011;14791;52.392;13.092;2022-11-11T17:57:15;11.33;;;10.20;;
27303;SDS011;14791;52.392;13.092;2022-11-11T18:00:02;10.77;;;9.77;;
27303;SDS011;14791;52.392;13.092;2022-11-11T18:02:49;11.07;;;9.87;;
27303;SDS011;14791;52.392;13.092;2022-11-11T18:05:36;9.70;;;8.80;;
27303;SDS011;14791;52.392;13.092;2022-11-11T18:08:23;7.20;;;6.70;;
27303;SDS011;14791;52.392;13.092;2022-11-11T18:11:10;6.83;;;6.30;;
27303;SDS011;14791;52.392;13.092;2022-11-11T18:13:57;6.77;;;6.27;;
27303;SDS011;14791;52.392;13.092;2022-11-11T18:16:44;5.10;;;4.90;;
27303;SDS011;14791;52.392;13.092;2022-11-11T18:19:31;6.83;;;6.23;;
27303;SDS011;14791;52.392;13.092;2022-11-11T18:22:18;7.90;;;7.40;;
27303;SDS011;14791;52.392;13.092;2022-11-11T18:25:05;9.00;;;7.47;;
27303;SDS011;14791;52.392;13.092;2022-11-11T18:27:53;7.13;;;6.57;;
27303;SDS011;14791;52.392;13.092;2022-11-11T18:30:39;6.67;;;6.27;;
27303;SDS011;14791;52.392;13.092;2022-11-11T18:33:27;7.53;;;5.93;;
27303;SDS011;14791;52.392;13.092;2022-11-11T18:36:15;5.93;;;5.43;;
27303;SDS011;14791;52.392;13.092;2022-11-11T18:39:04;6.13;;;5.53;;
27303;SDS011;14791;52.392;13.092;2022-11-11T18:41:52;10.00;;;9.10;;
27303;SDS011;14791;52.392;13.092;2022-11-11T18:44:39;6.93;;;6.33;;
27303;SDS011;14791;52.392;13.092;2022-11-11T18:47:25;6.27;;;5.87;;
27303;SDS011;14791;52.392;13.092;2022-11-11T18:50:13;7.17;;;6.67;;